createdAt,value
2023-01-17T00:02:23.511Z,0.13
2023-01-17T00:07:35.767Z,0.10
2023-01-17T00:12:30.522Z,0.12
2023-01-17T00:17:24.062Z,0.10
2023-01-17T00:22:49.143Z,-0.01
2023-01-17T00:27:40.686Z,-0.10
2023-01-17T00:32:32.350Z,-0.14
2023-01-17T00:37:23.851Z,-0.17
2023-01-17T00:42:15.466Z,-0.17
2023-01-17T00:47:25.539Z,-0.22
2023-01-17T00:52:36.134Z,-0.26
2023-01-17T00:57:46.103Z,-0.25
2023-01-17T01:02:57.022Z,-0.29
2023-01-17T01:08:07.325Z,-0.35
2023-01-17T01:13:17.848Z,-0.39
2023-01-17T01:18:30.809Z,-0.42
2023-01-17T01:23:41.341Z,-0.44
2023-01-17T01:28:51.678Z,-0.48
2023-01-17T01:33:43.238Z,-0.54
2023-01-17T01:38:35.121Z,-0.55
2023-01-17T01:43:48.406Z,-0.51
2023-01-17T01:48:46.241Z,-0.48
2023-01-17T01:53:42.956Z,-0.44
2023-01-17T01:58:37.877Z,-0.43
2023-01-17T02:03:32.749Z,-0.44
2023-01-17T02:08:24.814Z,-0.44
2023-01-17T02:13:19.264Z,-0.47
2023-01-17T02:18:30.073Z,-0.52
2023-01-17T02:23:49.317Z,-0.52
2023-01-17T02:29:25.589Z,-0.55
2023-01-17T02:34:38.658Z,-0.59
2023-01-17T02:39:36.884Z,-0.66
2023-01-17T02:44:28.444Z,-0.71
2023-01-17T02:49:25.147Z,-0.76
2023-01-17T02:54:35.137Z,-0.82
2023-01-17T02:59:35.921Z,-0.87
2023-01-17T03:04:37.798Z,-0.93
2023-01-17T03:09:31.981Z,-0.98
2023-01-17T03:14:23.731Z,-1.01
2023-01-17T03:19:16.196Z,-1.04
2023-01-17T03:24:11.530Z,-1.06
2023-01-17T03:29:03.369Z,-1.10
2023-01-17T03:33:55.099Z,-1.14
2023-01-17T03:38:47.188Z,-1.20
2023-01-17T03:43:38.805Z,-1.20
2023-01-17T03:48:33.144Z,-1.20
2023-01-17T03:53:25.328Z,-1.22
2023-01-17T03:58:17.061Z,-1.25
2023-01-17T04:03:08.742Z,-1.22
2023-01-17T04:08:00.625Z,-1.25
2023-01-17T04:12:52.331Z,-1.30
2023-01-17T04:17:45.339Z,-1.30
2023-01-17T04:22:37.126Z,-1.26
2023-01-17T04:27:28.794Z,-1.20
2023-01-17T04:32:20.764Z,-1.12
2023-01-17T04:37:12.578Z,-1.09
2023-01-17T04:42:04.837Z,-1.09
2023-01-17T04:46:56.498Z,-1.09
2023-01-17T04:51:48.735Z,-1.08
2023-01-17T04:56:40.710Z,-1.07
2023-01-17T05:01:36.758Z,-1.11
2023-01-17T05:06:28.526Z,-1.23
2023-01-17T05:11:20.347Z,-1.32
2023-01-17T05:16:12.051Z,-1.30
2023-01-17T05:21:04.414Z,-1.30
2023-01-17T05:25:56.660Z,-1.25
2023-01-17T05:30:48.719Z,-1.18
2023-01-17T05:35:41.169Z,-1.11
2023-01-17T05:40:35.132Z,-1.11
2023-01-17T05:45:29.278Z,-1.11
2023-01-17T05:50:25.076Z,-1.12
2023-01-17T05:55:18.104Z,-1.13
2023-01-17T06:00:10.655Z,-1.12
2023-01-17T06:05:03.601Z,-1.13
2023-01-17T06:09:55.391Z,-1.18
2023-01-17T06:14:47.085Z,-1.21
2023-01-17T06:19:38.795Z,-1.28
2023-01-17T06:24:30.669Z,-1.33
2023-01-17T06:29:22.614Z,-1.33
2023-01-17T06:34:14.373Z,-1.33
2023-01-17T06:39:06.084Z,-1.31
2023-01-17T06:43:57.792Z,-1.29
2023-01-17T06:48:52.431Z,-1.30
2023-01-17T06:53:44.321Z,-1.36
2023-01-17T06:58:36.673Z,-1.46
2023-01-17T07:03:28.351Z,-1.62
2023-01-17T07:08:20.460Z,-1.67
2023-01-17T07:13:12.731Z,-1.64
2023-01-17T07:18:04.666Z,-1.66
2023-01-17T07:22:56.499Z,-1.71
2023-01-17T07:27:48.688Z,-1.73
2023-01-17T07:32:40.630Z,-1.76
2023-01-17T07:37:32.380Z,-1.80
2023-01-17T07:42:24.522Z,-1.86
2023-01-17T07:47:16.257Z,-1.88
2023-01-17T07:52:09.386Z,-1.93
2023-01-17T07:57:01.838Z,-1.94
2023-01-17T08:01:53.694Z,-1.94
2023-01-17T08:06:48.724Z,-1.97
2023-01-17T08:11:40.486Z,-2.08
2023-01-17T08:16:32.220Z,-2.13
2023-01-17T08:21:24.260Z,-2.13
2023-01-17T08:26:21.557Z,-2.11
2023-01-17T08:31:13.505Z,-2.09
2023-01-17T08:36:05.400Z,-2.05
2023-01-17T08:41:01.342Z,-1.99
2023-01-17T08:45:56.113Z,-1.86
2023-01-17T08:50:48.215Z,-1.65
2023-01-17T08:55:41.180Z,-1.51
2023-01-17T09:00:33.035Z,-1.45
2023-01-17T09:05:24.796Z,-1.37
2023-01-17T09:10:16.983Z,-1.32
2023-01-17T09:15:09.181Z,-1.27
2023-01-17T09:20:00.974Z,-1.19
2023-01-17T09:24:53.506Z,-0.96
2023-01-17T09:29:45.298Z,-0.61
2023-01-17T09:34:37.068Z,-0.20
2023-01-17T09:39:28.796Z,0.33
2023-01-17T09:44:25.801Z,0.86
2023-01-17T09:49:42.819Z,1.36
2023-01-17T09:54:38.335Z,2.05
2023-01-17T09:59:38.887Z,2.64
2023-01-17T10:05:07.815Z,3.18
2023-01-17T10:10:18.312Z,3.66
2023-01-17T10:15:37.246Z,4.27
2023-01-17T10:20:34.972Z,4.53
2023-01-17T10:25:42.637Z,4.42
2023-01-17T10:30:39.337Z,4.81
2023-01-17T10:35:36.461Z,5.19
2023-01-17T10:40:54.875Z,5.48
2023-01-17T10:45:54.529Z,5.67
2023-01-17T10:50:58.549Z,6.04
2023-01-17T10:55:56.425Z,6.23
2023-01-17T11:00:55.341Z,6.32
2023-01-17T11:06:57.295Z,6.65
2023-01-17T11:11:51.808Z,6.91
2023-01-17T11:16:43.606Z,6.94
2023-01-17T11:21:38.194Z,7.02
2023-01-17T11:26:32.891Z,7.05
2023-01-17T11:31:26.523Z,7.14
2023-01-17T11:36:21.346Z,7.21
2023-01-17T11:41:20.730Z,7.26
2023-01-17T11:46:18.096Z,7.32
2023-01-17T11:51:25.418Z,7.38
2023-01-17T11:56:29.855Z,7.35
2023-01-17T12:01:44.536Z,7.28
2023-01-17T12:06:58.122Z,7.30
2023-01-17T12:12:17.867Z,7.24
2023-01-17T12:17:29.775Z,7.09
2023-01-17T12:22:56.327Z,6.90
2023-01-17T12:28:10.171Z,6.58
2023-01-17T12:33:12.232Z,6.50
2023-01-17T12:38:18.056Z,6.31
2023-01-17T12:43:35.277Z,6.28
2023-01-17T12:48:32.266Z,6.37
2023-01-17T12:53:40.075Z,6.34
2023-01-17T12:58:39.444Z,6.25
2023-01-17T13:04:00.576Z,6.18
2023-01-17T13:09:01.651Z,6.13
2023-01-17T13:13:57.548Z,6.01
2023-01-17T13:18:51.840Z,5.86
2023-01-17T13:23:59.231Z,5.87
2023-01-17T13:28:50.857Z,5.77
2023-01-17T13:33:51.729Z,5.65
2023-01-17T13:39:35.658Z,5.59
2023-01-17T13:44:30.089Z,5.49
2023-01-17T13:49:31.573Z,5.31
2023-01-17T13:54:33.571Z,5.17
2023-01-17T13:59:30.337Z,5.08
2023-01-17T14:04:22.566Z,5.11
2023-01-17T14:09:17.251Z,5.00
2023-01-17T14:14:36.840Z,4.85
2023-01-17T14:19:28.751Z,4.72
2023-01-17T14:24:21.353Z,4.56
2023-01-17T14:29:45.369Z,4.48
2023-01-17T14:34:37.131Z,4.43
2023-01-17T14:39:28.938Z,4.40
2023-01-17T14:44:22.984Z,4.35
2023-01-17T14:49:24.219Z,4.35
2023-01-17T14:54:21.598Z,4.30
2023-01-17T14:59:17.453Z,4.29
2023-01-17T15:04:24.258Z,4.29
2023-01-17T15:09:21.681Z,4.21
2023-01-17T15:14:20.353Z,4.15
2023-01-17T15:19:15.481Z,4.03
2023-01-17T15:24:09.185Z,3.98
2023-01-17T15:29:12.668Z,3.88
2023-01-17T15:34:09.135Z,3.68
2023-01-17T15:39:04.552Z,3.53
2023-01-17T15:43:58.797Z,3.44
2023-01-17T15:48:51.800Z,3.38
2023-01-17T15:53:44.118Z,3.30
2023-01-17T15:58:35.807Z,3.27
2023-01-17T16:03:30.100Z,3.19
2023-01-17T16:08:30.858Z,3.10
2023-01-17T16:13:22.592Z,2.99
2023-01-17T16:18:32.505Z,2.84
2023-01-17T16:23:24.190Z,2.76
2023-01-17T16:28:16.063Z,2.68
2023-01-17T16:33:11.702Z,2.58
2023-01-17T16:38:06.361Z,2.55
2023-01-17T16:42:59.313Z,2.43
2023-01-17T16:47:52.901Z,2.39
2023-01-17T16:52:44.810Z,2.36
2023-01-17T16:57:36.901Z,2.31
2023-01-17T17:02:28.811Z,2.32
2023-01-17T17:07:20.597Z,2.28
2023-01-17T17:12:13.020Z,2.23
2023-01-17T17:17:07.014Z,2.17
2023-01-17T17:21:59.146Z,2.08
2023-01-17T17:26:50.854Z,2.03
2023-01-17T17:31:43.285Z,2.02
2023-01-17T17:36:36.139Z,1.97
2023-01-17T17:41:30.417Z,1.87
2023-01-17T17:46:24.024Z,1.82
2023-01-17T17:51:23.172Z,1.72
2023-01-17T17:56:15.198Z,1.69
2023-01-17T18:01:07.155Z,1.71
2023-01-17T18:06:07.654Z,1.69
2023-01-17T18:11:05.979Z,1.64
2023-01-17T18:16:01.931Z,1.60
2023-01-17T18:20:53.786Z,1.56
2023-01-17T18:25:45.735Z,1.49
2023-01-17T18:30:38.586Z,1.50
2023-01-17T18:35:30.307Z,1.47
2023-01-17T18:40:22.047Z,1.43
2023-01-17T18:45:13.907Z,1.44
2023-01-17T18:50:05.981Z,1.39
2023-01-17T18:54:57.693Z,1.34
2023-01-17T18:59:49.368Z,1.34
2023-01-17T19:04:41.021Z,1.33
2023-01-17T19:09:32.805Z,1.29
2023-01-17T19:14:25.393Z,1.25
2023-01-17T19:19:17.261Z,1.25
2023-01-17T19:24:13.117Z,1.24
2023-01-17T19:29:06.810Z,1.20
2023-01-17T19:34:00.338Z,1.15
2023-01-17T19:39:03.366Z,1.11
2023-01-17T19:44:02.079Z,1.12
2023-01-17T19:48:55.102Z,1.13
2023-01-17T19:53:46.972Z,1.14
2023-01-17T19:58:38.989Z,1.10
2023-01-17T20:03:30.835Z,1.06
2023-01-17T20:08:22.566Z,0.99
2023-01-17T20:13:14.272Z,0.92
2023-01-17T20:18:08.458Z,0.92
2023-01-17T20:23:01.490Z,0.91
2023-01-17T20:27:55.111Z,0.91
2023-01-17T20:32:47.341Z,0.91
2023-01-17T20:37:39.111Z,0.91
2023-01-17T20:42:31.010Z,0.91
2023-01-17T20:47:22.724Z,0.91
2023-01-17T20:52:15.442Z,0.93
2023-01-17T20:57:07.224Z,0.97
2023-01-17T21:01:59.179Z,1.04
2023-01-17T21:06:52.982Z,1.04
2023-01-17T21:11:44.746Z,1.01
2023-01-17T21:16:36.637Z,0.95
2023-01-17T21:21:31.795Z,0.92
2023-01-17T21:26:27.893Z,0.86
2023-01-17T21:31:30.996Z,0.88
2023-01-17T21:36:25.405Z,0.86
2023-01-17T21:41:17.207Z,0.83
2023-01-17T21:46:08.931Z,0.81
2023-01-17T21:51:08.434Z,0.86
2023-01-17T21:56:23.733Z,0.89
2023-01-17T22:01:21.650Z,0.85
2023-01-17T22:06:13.681Z,0.86
2023-01-17T22:11:07.640Z,0.84
2023-01-17T22:16:01.212Z,0.80
2023-01-17T22:20:53.143Z,0.78
2023-01-17T22:25:45.530Z,0.80
2023-01-17T22:30:37.445Z,0.80
2023-01-17T22:35:29.105Z,0.84
2023-01-17T22:40:21.563Z,0.88
2023-01-17T22:45:14.705Z,0.89
2023-01-17T22:50:07.529Z,0.90
2023-01-17T22:54:59.370Z,0.83
2023-01-17T22:59:51.449Z,0.73
2023-01-17T23:04:43.315Z,0.70
2023-01-17T23:09:35.094Z,0.67
2023-01-17T23:14:27.079Z,0.62
2023-01-17T23:19:24.669Z,0.57
2023-01-17T23:24:16.516Z,0.53
2023-01-17T23:29:08.252Z,0.55
2023-01-17T23:33:59.986Z,0.56
2023-01-17T23:38:51.721Z,0.60
2023-01-17T23:43:43.594Z,0.60
2023-01-17T23:48:35.716Z,0.65
2023-01-17T23:53:28.563Z,0.65
2023-01-17T23:58:22.927Z,0.66
